Flugplatz Soest/Bad Sassendorf

Für EDLZ sind keine METAR/TAF Berichte vorhanden.
Es werden die Flugwettermeldungen vom Flugplatz Paderborn Lippstadt in 28 km Entfernung angezeigt.

Bericht für EDLP

vom 28.09. um 23:20 UTC

Wind 6 kt aus 140°

Sichtweite 10 km oder mehr

gute Sicht, keine Wolken < 5000 ft, keine CB, keine Wettererscheinungen (CAVOK)

Temperatur 10.0°C

Taupunkt 8.0°C

Luftfeuchtigkeit 87%

Luftdruck 1019 hPa

EDLP 282320Z 14006KT CAVOK 10/08 Q1019

Prognose für EDLP

vom 28.09. um 23:00 UTC

Zwischen 00:00 UTC und 07:00 UTC

Wind 6 kt aus 150°

Sichtweite 10 km oder mehr

aufgelockert bewölkt in 2500 ft


Zwischen 07:00 und 10:00 UTC übergehend zu

Wind 11 kt aus 190°

Sichtweite 10 km oder mehr

aufgelockert bewölkt in 2500 ft


Zwischen 10:00 UTC und 12:00 UTC zeitweise mit einer Wahrscheinlichkeit von 30%

Regen


Zwischen 10:00 und 13:00 UTC übergehend zu

Wind 15 kt aus 230° in Böen 25 kt

Sichtweite 10 km oder mehr

aufgelockert bewölkt in 2500 ft


Zwischen 13:00 UTC und 19:00 UTC zeitweise

Wind 20 kt aus 240° in Böen 30 kt

Regenschauer

aufgebrochene Bewölkung in 2000 ft


Zwischen 14:00 UTC und 18:00 UTC zeitweise mit einer Wahrscheinlichkeit von 30%

Wind 25 kt aus 240° in Böen 35 kt

Sichtweite 4000 m

Code: TSRA

TAF EDLP 282300Z 2900/2924 15006KT 9999 SCT025 BECMG 2907/2910 19011KT BECMG 2910/2913 23015G25KT PROB30 TEMPO 2910/2912 RA TEMPO 2913/2919 24020G30KT SHRA BKN020CB PROB30 TEMPO 2914/2918 24025G35KT 4000 TSRA
Impressum